sensor_id;sensor_type;location;lat;lon;timestamp;temperature;humidity
11320;DHT22;5715;48.234;14.320;2024-01-16T00:00:30;0.30;99.90
11320;DHT22;5715;48.234;14.320;2024-01-16T00:03:18;0.20;99.90
11320;DHT22;5715;48.234;14.320;2024-01-16T00:06:06;0.20;99.90
11320;DHT22;5715;48.234;14.320;2024-01-16T00:08:54;0.20;99.90
11320;DHT22;5715;48.234;14.320;2024-01-16T00:11:43;0.20;99.90
11320;DHT22;5715;48.234;14.320;2024-01-16T00:14:35;0.20;99.90
11320;DHT22;5715;48.234;14.320;2024-01-16T00:17:35;0.10;99.90
11320;DHT22;5715;48.234;14.320;2024-01-16T00:20:23;0.20;99.90
11320;DHT22;5715;48.234;14.320;2024-01-16T00:23:29;0.20;99.90
11320;DHT22;5715;48.234;14.320;2024-01-16T00:26:23;0.10;99.90
11320;DHT22;5715;48.234;14.320;2024-01-16T00:29:11;0.20;99.90
11320;DHT22;5715;48.234;14.320;2024-01-16T00:32:09;0.20;99.90
11320;DHT22;5715;48.234;14.320;2024-01-16T00:35:10;0.20;99.90
11320;DHT22;5715;48.234;14.320;2024-01-16T00:38:01;0.20;99.90
11320;DHT22;5715;48.234;14.320;2024-01-16T00:40:54;0.20;99.90
11320;DHT22;5715;48.234;14.320;2024-01-16T00:43:55;0.10;99.90
11320;DHT22;5715;48.234;14.320;2024-01-16T00:47:11;0.10;99.90
11320;DHT22;5715;48.234;14.320;2024-01-16T00:50:00;0.10;99.90
11320;DHT22;5715;48.234;14.320;2024-01-16T00:53:05;0.10;99.90
11320;DHT22;5715;48.234;14.320;2024-01-16T00:56:04;0.10;99.90
11320;DHT22;5715;48.234;14.320;2024-01-16T00:59:15;0.10;99.90
11320;DHT22;5715;48.234;14.320;2024-01-16T01:02:14;0.10;99.90
11320;DHT22;5715;48.234;14.320;2024-01-16T01:05:29;0.10;99.90
11320;DHT22;5715;48.234;14.320;2024-01-16T01:08:20;0.10;99.90
11320;DHT22;5715;48.234;14.320;2024-01-16T01:11:13;0.10;99.90
11320;DHT22;5715;48.234;14.320;2024-01-16T01:14:01;0.10;99.90
11320;DHT22;5715;48.234;14.320;2024-01-16T01:16:49;0.10;99.90
11320;DHT22;5715;48.234;14.320;2024-01-16T01:19:37;0.20;99.90
11320;DHT22;5715;48.234;14.320;2024-01-16T01:22:24;0.20;99.90
11320;DHT22;5715;48.234;14.320;2024-01-16T01:25:12;0.20;99.90
11320;DHT22;5715;48.234;14.320;2024-01-16T01:28:00;0.20;99.90
11320;DHT22;5715;48.234;14.320;2024-01-16T01:30:48;0.20;99.90
11320;DHT22;5715;48.234;14.320;2024-01-16T01:33:35;0.20;99.90
11320;DHT22;5715;48.234;14.320;2024-01-16T01:36:23;0.20;99.90
11320;DHT22;5715;48.234;14.320;2024-01-16T01:39:11;0.20;99.90
11320;DHT22;5715;48.234;14.320;2024-01-16T01:41:59;0.20;99.90
11320;DHT22;5715;48.234;14.320;2024-01-16T01:44:47;0.30;99.90
11320;DHT22;5715;48.234;14.320;2024-01-16T01:47:35;0.20;99.90
11320;DHT22;5715;48.234;14.320;2024-01-16T01:50:24;0.20;99.90
11320;DHT22;5715;48.234;14.320;2024-01-16T01:53:15;0.20;99.90
11320;DHT22;5715;48.234;14.320;2024-01-16T01:56:04;0.20;99.90
11320;DHT22;5715;48.234;14.320;2024-01-16T01:59:05;0.20;99.90
11320;DHT22;5715;48.234;14.320;2024-01-16T02:02:12;0.20;99.90
11320;DHT22;5715;48.234;14.320;2024-01-16T02:05:00;0.10;99.90
11320;DHT22;5715;48.234;14.320;2024-01-16T02:07:52;0.10;99.90
11320;DHT22;5715;48.234;14.320;2024-01-16T02:10:53;0.10;99.90
11320;DHT22;5715;48.234;14.320;2024-01-16T02:13:47;0.10;99.90
11320;DHT22;5715;48.234;14.320;2024-01-16T02:16:37;0.10;99.90
11320;DHT22;5715;48.234;14.320;2024-01-16T02:19:35;0.10;99.90
11320;DHT22;5715;48.234;14.320;2024-01-16T02:22:29;0.10;99.90
11320;DHT22;5715;48.234;14.320;2024-01-16T02:25:33;0.10;99.90
11320;DHT22;5715;48.234;14.320;2024-01-16T02:28:22;0.20;99.90
11320;DHT22;5715;48.234;14.320;2024-01-16T02:31:21;0.10;99.90
11320;DHT22;5715;48.234;14.320;2024-01-16T02:34:17;0.20;99.90
11320;DHT22;5715;48.234;14.320;2024-01-16T02:37:06;0.20;99.90
11320;DHT22;5715;48.234;14.320;2024-01-16T02:40:21;0.20;99.90
11320;DHT22;5715;48.234;14.320;2024-01-16T02:43:12;0.10;99.90
11320;DHT22;5715;48.234;14.320;2024-01-16T02:46:06;0.10;99.90
11320;DHT22;5715;48.234;14.320;2024-01-16T02:48:59;0.10;99.90
11320;DHT22;5715;48.234;14.320;2024-01-16T02:52:01;0.10;99.90
11320;DHT22;5715;48.234;14.320;2024-01-16T02:54:54;0.00;99.90
11320;DHT22;5715;48.234;14.320;2024-01-16T02:57:46;0.00;99.90
11320;DHT22;5715;48.234;14.320;2024-01-16T03:00:34;0.00;99.90
11320;DHT22;5715;48.234;14.320;2024-01-16T03:03:22;-0.10;99.90
11320;DHT22;5715;48.234;14.320;2024-01-16T03:06:22;-0.10;99.90
11320;DHT22;5715;48.234;14.320;2024-01-16T03:09:12;-0.10;99.90
11320;DHT22;5715;48.234;14.320;2024-01-16T03:12:01;-0.10;99.90
11320;DHT22;5715;48.234;14.320;2024-01-16T03:14:58;0.00;99.90
11320;DHT22;5715;48.234;14.320;2024-01-16T03:17:47;0.00;99.90
11320;DHT22;5715;48.234;14.320;2024-01-16T03:20:36;0.00;99.90
11320;DHT22;5715;48.234;14.320;2024-01-16T03:23:24;0.00;99.90
11320;DHT22;5715;48.234;14.320;2024-01-16T03:26:16;0.00;99.90
11320;DHT22;5715;48.234;14.320;2024-01-16T03:29:05;0.00;99.90
11320;DHT22;5715;48.234;14.320;2024-01-16T03:31:56;-0.10;99.90
11320;DHT22;5715;48.234;14.320;2024-01-16T03:34:50;-0.20;99.90
11320;DHT22;5715;48.234;14.320;2024-01-16T03:37:41;-0.10;99.90
11320;DHT22;5715;48.234;14.320;2024-01-16T03:40:29;-0.10;99.90
11320;DHT22;5715;48.234;14.320;2024-01-16T03:43:24;-0.10;99.90
11320;DHT22;5715;48.234;14.320;2024-01-16T03:46:13;0.00;99.90
11320;DHT22;5715;48.234;14.320;2024-01-16T03:49:01;0.00;99.90
11320;DHT22;5715;48.234;14.320;2024-01-16T03:51:49;0.10;99.90
11320;DHT22;5715;48.234;14.320;2024-01-16T03:54:55;0.10;99.90
11320;DHT22;5715;48.234;14.320;2024-01-16T03:57:44;0.10;99.90
11320;DHT22;5715;48.234;14.320;2024-01-16T04:00:35;0.10;99.90
11320;DHT22;5715;48.234;14.320;2024-01-16T04:03:23;0.10;99.90
11320;DHT22;5715;48.234;14.320;2024-01-16T04:06:15;0.20;99.90
11320;DHT22;5715;48.234;14.320;2024-01-16T04:09:04;0.20;99.90
11320;DHT22;5715;48.234;14.320;2024-01-16T04:12:14;0.20;99.90
11320;DHT22;5715;48.234;14.320;2024-01-16T04:15:15;0.20;99.90
11320;DHT22;5715;48.234;14.320;2024-01-16T04:18:13;0.20;99.90
11320;DHT22;5715;48.234;14.320;2024-01-16T04:21:00;0.20;99.90
11320;DHT22;5715;48.234;14.320;2024-01-16T04:23:51;0.20;99.90
11320;DHT22;5715;48.234;14.320;2024-01-16T04:26:42;0.20;99.90
11320;DHT22;5715;48.234;14.320;2024-01-16T04:29:42;0.20;99.90
11320;DHT22;5715;48.234;14.320;2024-01-16T04:33:01;0.20;99.90
11320;DHT22;5715;48.234;14.320;2024-01-16T04:36:00;0.10;99.90
11320;DHT22;5715;48.234;14.320;2024-01-16T04:38:54;0.20;99.90
11320;DHT22;5715;48.234;14.320;2024-01-16T04:41:50;0.10;99.90
11320;DHT22;5715;48.234;14.320;2024-01-16T04:44:43;0.00;99.90
11320;DHT22;5715;48.234;14.320;2024-01-16T04:47:34;0.00;99.90
11320;DHT22;5715;48.234;14.320;2024-01-16T04:50:35;0.00;99.90
11320;DHT22;5715;48.234;14.320;2024-01-16T04:53:34;0.00;99.90
11320;DHT22;5715;48.234;14.320;2024-01-16T04:56:34;0.10;99.90
11320;DHT22;5715;48.234;14.320;2024-01-16T04:59:42;0.10;99.90
11320;DHT22;5715;48.234;14.320;2024-01-16T05:02:40;0.00;99.90
11320;DHT22;5715;48.234;14.320;2024-01-16T05:05:31;0.00;99.90
11320;DHT22;5715;48.234;14.320;2024-01-16T05:08:19;0.00;99.90
11320;DHT22;5715;48.234;14.320;2024-01-16T05:11:19;0.00;99.90
11320;DHT22;5715;48.234;14.320;2024-01-16T05:14:13;0.00;99.90
11320;DHT22;5715;48.234;14.320;2024-01-16T05:17:01;-0.10;99.90
11320;DHT22;5715;48.234;14.320;2024-01-16T05:19:52;-0.10;99.90
11320;DHT22;5715;48.234;14.320;2024-01-16T05:22:44;-0.10;99.90
11320;DHT22;5715;48.234;14.320;2024-01-16T05:25:42;-0.10;99.90
11320;DHT22;5715;48.234;14.320;2024-01-16T05:28:40;-0.20;99.90
11320;DHT22;5715;48.234;14.320;2024-01-16T05:31:28;-0.20;99.90
11320;DHT22;5715;48.234;14.320;2024-01-16T05:34:33;-0.20;99.90
11320;DHT22;5715;48.234;14.320;2024-01-16T05:37:39;-0.30;99.90
11320;DHT22;5715;48.234;14.320;2024-01-16T05:40:33;-0.40;99.90
11320;DHT22;5715;48.234;14.320;2024-01-16T05:43:42;-0.40;99.90
11320;DHT22;5715;48.234;14.320;2024-01-16T05:46:33;-0.40;99.90
11320;DHT22;5715;48.234;14.320;2024-01-16T05:49:21;-0.50;99.90
11320;DHT22;5715;48.234;14.320;2024-01-16T05:52:09;-0.60;99.90
11320;DHT22;5715;48.234;14.320;2024-01-16T05:54:57;-0.60;99.90
11320;DHT22;5715;48.234;14.320;2024-01-16T05:57:46;-0.60;99.90
11320;DHT22;5715;48.234;14.320;2024-01-16T06:00:34;-0.70;99.90
11320;DHT22;5715;48.234;14.320;2024-01-16T06:03:22;-0.70;99.90
11320;DHT22;5715;48.234;14.320;2024-01-16T06:06:09;-0.60;99.90
11320;DHT22;5715;48.234;14.320;2024-01-16T06:08:57;-0.60;99.90
11320;DHT22;5715;48.234;14.320;2024-01-16T06:11:46;-0.60;99.90
11320;DHT22;5715;48.234;14.320;2024-01-16T06:14:35;-0.60;99.90
11320;DHT22;5715;48.234;14.320;2024-01-16T06:17:23;-0.60;99.90
11320;DHT22;5715;48.234;14.320;2024-01-16T06:20:10;-0.60;99.90
11320;DHT22;5715;48.234;14.320;2024-01-16T06:22:58;-0.50;99.90
11320;DHT22;5715;48.234;14.320;2024-01-16T06:25:46;-0.50;99.90
11320;DHT22;5715;48.234;14.320;2024-01-16T06:28:33;-0.50;99.90
11320;DHT22;5715;48.234;14.320;2024-01-16T06:31:21;-0.50;99.90
11320;DHT22;5715;48.234;14.320;2024-01-16T06:34:09;-0.40;99.90
11320;DHT22;5715;48.234;14.320;2024-01-16T06:36:57;-0.40;99.90
11320;DHT22;5715;48.234;14.320;2024-01-16T06:39:44;-0.30;99.90
11320;DHT22;5715;48.234;14.320;2024-01-16T06:42:32;-0.30;99.90
11320;DHT22;5715;48.234;14.320;2024-01-16T06:45:20;-0.20;99.90
11320;DHT22;5715;48.234;14.320;2024-01-16T06:48:08;-0.20;99.90
11320;DHT22;5715;48.234;14.320;2024-01-16T06:50:56;-0.20;99.90
11320;DHT22;5715;48.234;14.320;2024-01-16T06:53:44;-0.20;99.90
11320;DHT22;5715;48.234;14.320;2024-01-16T06:56:31;-0.10;99.90
11320;DHT22;5715;48.234;14.320;2024-01-16T06:59:19;-0.10;99.90
11320;DHT22;5715;48.234;14.320;2024-01-16T07:02:09;-0.10;99.90
11320;DHT22;5715;48.234;14.320;2024-01-16T07:04:57;-0.20;99.90
11320;DHT22;5715;48.234;14.320;2024-01-16T07:07:47;-0.20;99.90
11320;DHT22;5715;48.234;14.320;2024-01-16T07:10:35;-0.10;99.90
11320;DHT22;5715;48.234;14.320;2024-01-16T07:13:23;-0.10;99.90
11320;DHT22;5715;48.234;14.320;2024-01-16T07:16:11;-0.10;99.90
11320;DHT22;5715;48.234;14.320;2024-01-16T07:18:59;0.00;99.90
11320;DHT22;5715;48.234;14.320;2024-01-16T07:21:46;0.00;99.90
11320;DHT22;5715;48.234;14.320;2024-01-16T07:24:34;0.00;99.90
11320;DHT22;5715;48.234;14.320;2024-01-16T07:27:22;0.00;99.90
11320;DHT22;5715;48.234;14.320;2024-01-16T07:30:10;0.00;99.90
11320;DHT22;5715;48.234;14.320;2024-01-16T07:32:58;0.00;99.90
11320;DHT22;5715;48.234;14.320;2024-01-16T07:35:46;0.10;99.90
11320;DHT22;5715;48.234;14.320;2024-01-16T07:38:35;0.10;99.90
11320;DHT22;5715;48.234;14.320;2024-01-16T07:41:25;0.10;99.90
11320;DHT22;5715;48.234;14.320;2024-01-16T07:44:13;0.10;99.90
11320;DHT22;5715;48.234;14.320;2024-01-16T07:47:01;0.20;99.90
11320;DHT22;5715;48.234;14.320;2024-01-16T07:49:48;0.20;99.90
11320;DHT22;5715;48.234;14.320;2024-01-16T07:52:36;0.30;99.90
11320;DHT22;5715;48.234;14.320;2024-01-16T07:55:24;0.30;99.90
11320;DHT22;5715;48.234;14.320;2024-01-16T07:58:12;0.40;99.90
11320;DHT22;5715;48.234;14.320;2024-01-16T08:01:01;0.50;99.90
11320;DHT22;5715;48.234;14.320;2024-01-16T08:03:48;0.50;99.90
11320;DHT22;5715;48.234;14.320;2024-01-16T08:06:37;0.60;99.90
11320;DHT22;5715;48.234;14.320;2024-01-16T08:09:31;0.60;99.90
11320;DHT22;5715;48.234;14.320;2024-01-16T08:12:26;0.70;99.90
11320;DHT22;5715;48.234;14.320;2024-01-16T08:15:15;0.70;99.90
11320;DHT22;5715;48.234;14.320;2024-01-16T08:18:09;0.70;99.90
11320;DHT22;5715;48.234;14.320;2024-01-16T08:21:02;0.70;99.90
11320;DHT22;5715;48.234;14.320;2024-01-16T08:23:49;0.80;99.90
11320;DHT22;5715;48.234;14.320;2024-01-16T08:26:37;0.90;99.90
11320;DHT22;5715;48.234;14.320;2024-01-16T08:29:25;1.00;99.90
11320;DHT22;5715;48.234;14.320;2024-01-16T08:32:13;1.10;99.90
11320;DHT22;5715;48.234;14.320;2024-01-16T08:35:01;1.20;99.90
11320;DHT22;5715;48.234;14.320;2024-01-16T08:37:48;1.30;99.90
11320;DHT22;5715;48.234;14.320;2024-01-16T08:40:36;1.40;99.90
11320;DHT22;5715;48.234;14.320;2024-01-16T08:43:24;1.50;99.90
11320;DHT22;5715;48.234;14.320;2024-01-16T08:46:12;1.50;99.90
11320;DHT22;5715;48.234;14.320;2024-01-16T08:48:59;1.60;99.90
11320;DHT22;5715;48.234;14.320;2024-01-16T08:51:47;1.60;99.90
11320;DHT22;5715;48.234;14.320;2024-01-16T08:54:35;1.50;99.90
11320;DHT22;5715;48.234;14.320;2024-01-16T08:57:23;1.60;99.90
11320;DHT22;5715;48.234;14.320;2024-01-16T09:00:12;1.70;99.90
11320;DHT22;5715;48.234;14.320;2024-01-16T09:03:00;1.80;99.90
11320;DHT22;5715;48.234;14.320;2024-01-16T09:05:51;1.90;99.90
11320;DHT22;5715;48.234;14.320;2024-01-16T09:08:39;2.00;99.90
11320;DHT22;5715;48.234;14.320;2024-01-16T09:11:26;2.00;99.90
11320;DHT22;5715;48.234;14.320;2024-01-16T09:14:14;2.00;99.90
11320;DHT22;5715;48.234;14.320;2024-01-16T09:17:02;2.10;99.90
11320;DHT22;5715;48.234;14.320;2024-01-16T09:19:50;2.10;99.90
11320;DHT22;5715;48.234;14.320;2024-01-16T09:22:38;2.20;99.90
11320;DHT22;5715;48.234;14.320;2024-01-16T09:25:27;2.20;99.90
11320;DHT22;5715;48.234;14.320;2024-01-16T09:28:18;2.40;99.90
11320;DHT22;5715;48.234;14.320;2024-01-16T09:31:08;2.40;99.90
11320;DHT22;5715;48.234;14.320;2024-01-16T09:33:56;2.30;99.90
11320;DHT22;5715;48.234;14.320;2024-01-16T09:36:44;2.20;99.90
11320;DHT22;5715;48.234;14.320;2024-01-16T09:39:31;2.30;99.90
11320;DHT22;5715;48.234;14.320;2024-01-16T09:42:22;2.50;99.90
11320;DHT22;5715;48.234;14.320;2024-01-16T09:45:14;2.60;99.90
11320;DHT22;5715;48.234;14.320;2024-01-16T09:48:08;2.60;99.90
11320;DHT22;5715;48.234;14.320;2024-01-16T09:50:57;2.70;99.90
11320;DHT22;5715;48.234;14.320;2024-01-16T09:53:45;2.50;99.90
11320;DHT22;5715;48.234;14.320;2024-01-16T09:56:34;2.50;99.90
11320;DHT22;5715;48.234;14.320;2024-01-16T09:59:29;2.50;99.90
11320;DHT22;5715;48.234;14.320;2024-01-16T10:02:19;2.50;99.90
11320;DHT22;5715;48.234;14.320;2024-01-16T10:05:11;2.50;99.90
11320;DHT22;5715;48.234;14.320;2024-01-16T10:08:00;2.30;99.90
11320;DHT22;5715;48.234;14.320;2024-01-16T10:10:48;2.40;99.90
11320;DHT22;5715;48.234;14.320;2024-01-16T10:13:38;2.40;99.90
11320;DHT22;5715;48.234;14.320;2024-01-16T10:17:01;2.50;99.90
11320;DHT22;5715;48.234;14.320;2024-01-16T10:19:53;2.60;99.90
11320;DHT22;5715;48.234;14.320;2024-01-16T10:22:53;2.70;99.90
11320;DHT22;5715;48.234;14.320;2024-01-16T10:25:41;2.80;99.90
11320;DHT22;5715;48.234;14.320;2024-01-16T10:28:29;2.90;99.90
11320;DHT22;5715;48.234;14.320;2024-01-16T10:31:16;3.00;99.90
11320;DHT22;5715;48.234;14.320;2024-01-16T10:34:19;3.00;99.90
11320;DHT22;5715;48.234;14.320;2024-01-16T10:37:09;3.10;99.90
11320;DHT22;5715;48.234;14.320;2024-01-16T10:39:57;3.10;99.90
11320;DHT22;5715;48.234;14.320;2024-01-16T10:43:04;3.00;99.90
11320;DHT22;5715;48.234;14.320;2024-01-16T10:46:07;2.90;99.90
11320;DHT22;5715;48.234;14.320;2024-01-16T10:49:01;2.90;99.90
11320;DHT22;5715;48.234;14.320;2024-01-16T10:51:51;2.80;99.90
11320;DHT22;5715;48.234;14.320;2024-01-16T10:54:41;2.90;99.90
11320;DHT22;5715;48.234;14.320;2024-01-16T10:57:35;2.90;99.90
11320;DHT22;5715;48.234;14.320;2024-01-16T11:00:28;2.90;99.90
11320;DHT22;5715;48.234;14.320;2024-01-16T11:03:48;2.90;99.90
11320;DHT22;5715;48.234;14.320;2024-01-16T11:06:39;2.90;99.90
11320;DHT22;5715;48.234;14.320;2024-01-16T11:09:28;2.80;99.90
11320;DHT22;5715;48.234;14.320;2024-01-16T11:12:16;2.80;99.90
11320;DHT22;5715;48.234;14.320;2024-01-16T11:15:06;2.80;99.90
11320;DHT22;5715;48.234;14.320;2024-01-16T11:17:56;3.00;99.90
11320;DHT22;5715;48.234;14.320;2024-01-16T11:20:45;3.30;99.90
11320;DHT22;5715;48.234;14.320;2024-01-16T11:23:52;3.50;99.90
11320;DHT22;5715;48.234;14.320;2024-01-16T11:26:40;3.20;99.90
11320;DHT22;5715;48.234;14.320;2024-01-16T11:32:36;3.10;99.90
11320;DHT22;5715;48.234;14.320;2024-01-16T11:35:37;3.20;99.90
11320;DHT22;5715;48.234;14.320;2024-01-16T11:38:26;3.20;99.90
11320;DHT22;5715;48.234;14.320;2024-01-16T11:42:08;2.90;99.90
11320;DHT22;5715;48.234;14.320;2024-01-16T11:44:51;3.10;99.90
11320;DHT22;5715;48.234;14.320;2024-01-16T11:47:39;3.10;99.90
11320;DHT22;5715;48.234;14.320;2024-01-16T11:50:30;2.70;99.90
11320;DHT22;5715;48.234;14.320;2024-01-16T11:53:34;2.80;99.90
11320;DHT22;5715;48.234;14.320;2024-01-16T12:03:02;3.00;99.90
11320;DHT22;5715;48.234;14.320;2024-01-16T12:06:01;2.60;99.90
11320;DHT22;5715;48.234;14.320;2024-01-16T12:08:51;2.70;99.90
11320;DHT22;5715;48.234;14.320;2024-01-16T12:11:41;2.70;99.90
11320;DHT22;5715;48.234;14.320;2024-01-16T12:14:35;2.90;99.90
11320;DHT22;5715;48.234;14.320;2024-01-16T12:17:23;2.70;99.90
11320;DHT22;5715;48.234;14.320;2024-01-16T12:20:18;2.70;99.90
11320;DHT22;5715;48.234;14.320;2024-01-16T12:23:07;2.70;99.90
11320;DHT22;5715;48.234;14.320;2024-01-16T12:25:55;2.40;99.90
11320;DHT22;5715;48.234;14.320;2024-01-16T12:28:51;2.40;99.90
11320;DHT22;5715;48.234;14.320;2024-01-16T12:31:46;2.60;99.90
11320;DHT22;5715;48.234;14.320;2024-01-16T12:34:35;2.90;99.90
11320;DHT22;5715;48.234;14.320;2024-01-16T12:37:31;3.20;99.90
11320;DHT22;5715;48.234;14.320;2024-01-16T12:40:19;3.10;99.90
11320;DHT22;5715;48.234;14.320;2024-01-16T12:43:09;3.00;99.90
11320;DHT22;5715;48.234;14.320;2024-01-16T12:45:57;2.90;99.90
11320;DHT22;5715;48.234;14.320;2024-01-16T12:48:45;3.00;99.90
11320;DHT22;5715;48.234;14.320;2024-01-16T12:51:49;3.20;99.90
11320;DHT22;5715;48.234;14.320;2024-01-16T12:54:37;3.30;99.90
11320;DHT22;5715;48.234;14.320;2024-01-16T12:57:26;3.40;99.90
11320;DHT22;5715;48.234;14.320;2024-01-16T13:00:23;3.50;99.90
11320;DHT22;5715;48.234;14.320;2024-01-16T13:06:07;3.50;99.90
11320;DHT22;5715;48.234;14.320;2024-01-16T13:09:05;3.70;99.90
11320;DHT22;5715;48.234;14.320;2024-01-16T13:11:58;3.80;99.90
11320;DHT22;5715;48.234;14.320;2024-01-16T13:14:47;3.70;99.90
11320;DHT22;5715;48.234;14.320;2024-01-16T13:17:35;3.90;99.90
11320;DHT22;5715;48.234;14.320;2024-01-16T13:20:23;3.80;99.90
11320;DHT22;5715;48.234;14.320;2024-01-16T13:23:13;3.30;99.90
11320;DHT22;5715;48.234;14.320;2024-01-16T13:26:03;3.10;99.90
11320;DHT22;5715;48.234;14.320;2024-01-16T13:28:51;3.00;99.90
11320;DHT22;5715;48.234;14.320;2024-01-16T13:31:39;3.00;99.90
11320;DHT22;5715;48.234;14.320;2024-01-16T13:34:27;3.00;99.90
11320;DHT22;5715;48.234;14.320;2024-01-16T13:37:19;3.00;99.90
11320;DHT22;5715;48.234;14.320;2024-01-16T13:40:09;3.00;99.90
11320;DHT22;5715;48.234;14.320;2024-01-16T13:43:04;3.10;99.90
11320;DHT22;5715;48.234;14.320;2024-01-16T13:45:54;3.10;99.90
11320;DHT22;5715;48.234;14.320;2024-01-16T13:48:42;3.20;99.90
11320;DHT22;5715;48.234;14.320;2024-01-16T13:51:30;3.10;99.90
11320;DHT22;5715;48.234;14.320;2024-01-16T13:54:17;3.00;99.90
11320;DHT22;5715;48.234;14.320;2024-01-16T13:57:06;2.90;99.90
11320;DHT22;5715;48.234;14.320;2024-01-16T13:59:56;2.70;99.90
11320;DHT22;5715;48.234;14.320;2024-01-16T14:02:46;2.40;99.90
11320;DHT22;5715;48.234;14.320;2024-01-16T14:05:34;2.30;99.90
11320;DHT22;5715;48.234;14.320;2024-01-16T14:08:23;2.20;99.90
11320;DHT22;5715;48.234;14.320;2024-01-16T14:11:11;2.10;99.90
11320;DHT22;5715;48.234;14.320;2024-01-16T14:14:00;2.10;99.90
11320;DHT22;5715;48.234;14.320;2024-01-16T14:16:48;2.20;99.90
11320;DHT22;5715;48.234;14.320;2024-01-16T14:19:46;2.20;99.90
11320;DHT22;5715;48.234;14.320;2024-01-16T14:22:34;2.10;99.90
11320;DHT22;5715;48.234;14.320;2024-01-16T14:25:22;2.10;99.90
11320;DHT22;5715;48.234;14.320;2024-01-16T14:28:10;2.10;99.90
11320;DHT22;5715;48.234;14.320;2024-01-16T14:31:09;2.10;99.90
11320;DHT22;5715;48.234;14.320;2024-01-16T14:33:57;2.10;99.90
11320;DHT22;5715;48.234;14.320;2024-01-16T14:36:46;2.20;99.90
11320;DHT22;5715;48.234;14.320;2024-01-16T14:39:34;2.30;99.90
11320;DHT22;5715;48.234;14.320;2024-01-16T14:42:23;2.40;99.90
11320;DHT22;5715;48.234;14.320;2024-01-16T14:45:11;2.30;99.90
11320;DHT22;5715;48.234;14.320;2024-01-16T14:47:59;2.40;99.90
11320;DHT22;5715;48.234;14.320;2024-01-16T14:50:47;2.30;99.90
11320;DHT22;5715;48.234;14.320;2024-01-16T14:53:36;2.10;99.90
11320;DHT22;5715;48.234;14.320;2024-01-16T14:56:25;1.90;99.90
11320;DHT22;5715;48.234;14.320;2024-01-16T14:59:13;1.90;99.90
11320;DHT22;5715;48.234;14.320;2024-01-16T15:02:03;1.90;99.90
11320;DHT22;5715;48.234;14.320;2024-01-16T15:05:00;1.80;99.90
11320;DHT22;5715;48.234;14.320;2024-01-16T15:07:48;1.80;99.90
11320;DHT22;5715;48.234;14.320;2024-01-16T15:10:39;1.70;99.90
11320;DHT22;5715;48.234;14.320;2024-01-16T15:13:27;1.60;99.90
11320;DHT22;5715;48.234;14.320;2024-01-16T15:16:15;1.50;99.90
11320;DHT22;5715;48.234;14.320;2024-01-16T15:19:04;1.50;99.90
11320;DHT22;5715;48.234;14.320;2024-01-16T15:21:52;1.40;99.90
11320;DHT22;5715;48.234;14.320;2024-01-16T15:24:39;1.30;99.90
11320;DHT22;5715;48.234;14.320;2024-01-16T15:27:27;1.20;99.90
11320;DHT22;5715;48.234;14.320;2024-01-16T15:30:15;1.10;99.90
11320;DHT22;5715;48.234;14.320;2024-01-16T15:33:03;1.00;99.90
11320;DHT22;5715;48.234;14.320;2024-01-16T15:35:51;0.90;99.90
11320;DHT22;5715;48.234;14.320;2024-01-16T15:38:39;0.80;99.90
11320;DHT22;5715;48.234;14.320;2024-01-16T15:41:26;0.70;99.90
11320;DHT22;5715;48.234;14.320;2024-01-16T15:44:14;0.60;99.90
11320;DHT22;5715;48.234;14.320;2024-01-16T15:47:03;0.50;99.90
11320;DHT22;5715;48.234;14.320;2024-01-16T15:49:51;0.40;99.90
11320;DHT22;5715;48.234;14.320;2024-01-16T15:52:39;0.30;99.90
11320;DHT22;5715;48.234;14.320;2024-01-16T15:55:26;0.20;99.90
11320;DHT22;5715;48.234;14.320;2024-01-16T15:58:14;0.10;99.90
11320;DHT22;5715;48.234;14.320;2024-01-16T16:01:03;0.10;99.90
11320;DHT22;5715;48.234;14.320;2024-01-16T16:03:51;0.00;99.90
11320;DHT22;5715;48.234;14.320;2024-01-16T16:06:39;-0.10;99.90
11320;DHT22;5715;48.234;14.320;2024-01-16T16:09:30;-0.20;99.90
11320;DHT22;5715;48.234;14.320;2024-01-16T16:12:18;-0.20;99.90
11320;DHT22;5715;48.234;14.320;2024-01-16T16:15:06;-0.30;99.90
11320;DHT22;5715;48.234;14.320;2024-01-16T16:17:54;-0.30;99.90
11320;DHT22;5715;48.234;14.320;2024-01-16T16:20:44;-0.30;99.90
11320;DHT22;5715;48.234;14.320;2024-01-16T16:23:32;-0.40;99.90
11320;DHT22;5715;48.234;14.320;2024-01-16T16:26:34;-0.40;99.90
11320;DHT22;5715;48.234;14.320;2024-01-16T16:29:22;-0.40;99.90
11320;DHT22;5715;48.234;14.320;2024-01-16T16:32:09;-0.40;99.90
11320;DHT22;5715;48.234;14.320;2024-01-16T16:34:58;-0.50;99.90
11320;DHT22;5715;48.234;14.320;2024-01-16T16:37:45;-0.50;99.90
11320;DHT22;5715;48.234;14.320;2024-01-16T16:40:33;-0.40;99.90
11320;DHT22;5715;48.234;14.320;2024-01-16T16:43:20;-0.40;99.90
11320;DHT22;5715;48.234;14.320;2024-01-16T16:46:08;-0.40;99.90
11320;DHT22;5715;48.234;14.320;2024-01-16T16:48:56;-0.40;99.90
11320;DHT22;5715;48.234;14.320;2024-01-16T16:51:44;-0.40;99.90
11320;DHT22;5715;48.234;14.320;2024-01-16T16:54:33;-0.40;99.90
11320;DHT22;5715;48.234;14.320;2024-01-16T16:57:20;-0.40;99.90
11320;DHT22;5715;48.234;14.320;2024-01-16T17:00:09;-0.50;99.90
11320;DHT22;5715;48.234;14.320;2024-01-16T17:03:01;-0.50;99.90
11320;DHT22;5715;48.234;14.320;2024-01-16T17:05:51;-0.50;99.90
11320;DHT22;5715;48.234;14.320;2024-01-16T17:08:39;-0.50;99.90
11320;DHT22;5715;48.234;14.320;2024-01-16T17:11:28;-0.60;99.90
11320;DHT22;5715;48.234;14.320;2024-01-16T17:14:16;-0.50;99.90
11320;DHT22;5715;48.234;14.320;2024-01-16T17:17:04;-0.50;99.90
11320;DHT22;5715;48.234;14.320;2024-01-16T17:19:52;-0.50;99.90
11320;DHT22;5715;48.234;14.320;2024-01-16T17:22:40;-0.50;99.90
11320;DHT22;5715;48.234;14.320;2024-01-16T17:25:28;-0.40;99.90
11320;DHT22;5715;48.234;14.320;2024-01-16T17:28:16;-0.20;99.90
11320;DHT22;5715;48.234;14.320;2024-01-16T17:31:04;0.00;99.90
11320;DHT22;5715;48.234;14.320;2024-01-16T17:33:51;0.10;99.90
11320;DHT22;5715;48.234;14.320;2024-01-16T17:36:39;0.20;99.90
11320;DHT22;5715;48.234;14.320;2024-01-16T17:39:27;0.30;99.90
11320;DHT22;5715;48.234;14.320;2024-01-16T17:42:15;0.30;99.90
11320;DHT22;5715;48.234;14.320;2024-01-16T17:45:03;0.40;99.90
11320;DHT22;5715;48.234;14.320;2024-01-16T17:47:51;0.30;99.90
11320;DHT22;5715;48.234;14.320;2024-01-16T17:50:39;0.20;99.90
11320;DHT22;5715;48.234;14.320;2024-01-16T17:53:26;0.20;99.90
11320;DHT22;5715;48.234;14.320;2024-01-16T17:56:15;0.10;99.90
11320;DHT22;5715;48.234;14.320;2024-01-16T17:59:03;0.00;99.90
11320;DHT22;5715;48.234;14.320;2024-01-16T18:01:51;-0.10;99.90
11320;DHT22;5715;48.234;14.320;2024-01-16T18:04:40;-0.10;99.90
11320;DHT22;5715;48.234;14.320;2024-01-16T18:07:28;-0.20;99.90
11320;DHT22;5715;48.234;14.320;2024-01-16T18:10:16;-0.30;99.90
11320;DHT22;5715;48.234;14.320;2024-01-16T18:13:04;-0.30;99.90
11320;DHT22;5715;48.234;14.320;2024-01-16T18:15:53;-0.40;99.90
11320;DHT22;5715;48.234;14.320;2024-01-16T18:18:40;-0.40;99.90
11320;DHT22;5715;48.234;14.320;2024-01-16T18:21:28;-0.50;99.90
11320;DHT22;5715;48.234;14.320;2024-01-16T18:24:16;-0.50;99.90
11320;DHT22;5715;48.234;14.320;2024-01-16T18:27:05;-0.60;99.90